Time;durP1;ratioP1;P1;durP2;ratioP2;P2;SDS_P1;SDS_P2;PMS_P1;PMS_P2;Temp;Humidity;BMP_temperature;BMP_pressure;BME280_temperature;BME280_humidity;BME280_pressure;Samples;Min_cycle;Max_cycle;Signal;HPM_P1;HPM_P2
2021/08/24 00:01:19;;;;;;;3.40;0.85;;;14.80;99.00;;;;;;4991410;28;20081;-86
2021/08/24 00:03:45;;;;;;;2.75;1.02;;;14.70;99.00;;;;;;4992521;28;20122;-86
2021/08/24 00:06:12;;;;;;;4.55;1.17;;;14.70;99.00;;;;;;4991343;28;20050;-86
2021/08/24 00:08:40;;;;;;;3.42;1.00;;;14.70;99.10;;;;;;4989415;28;20085;-86
2021/08/24 00:11:08;;;;;;;4.63;1.48;;;14.70;99.20;;;;;;4990457;28;20030;-86
2021/08/24 00:13:33;;;;;;;2.75;1.05;;;14.60;99.20;;;;;;4986192;28;20038;-86
2021/08/24 00:15:59;;;;;;;5.88;1.70;;;14.60;99.30;;;;;;4992975;28;20030;-86
2021/08/24 00:18:25;;;;;;;3.50;1.13;;;14.50;99.40;;;;;;4984056;28;20033;-87
2021/08/24 00:20:53;;;;;;;2.40;1.10;;;14.50;99.40;;;;;;4989968;28;20038;-86
2021/08/24 00:23:22;;;;;;;3.47;1.00;;;14.50;99.40;;;;;;4993046;28;20446;-87
2021/08/24 00:25:50;;;;;;;2.90;1.00;;;14.50;99.50;;;;;;4981569;28;20502;-86
2021/08/24 00:28:16;;;;;;;2.75;1.30;;;14.40;99.50;;;;;;4983769;28;20034;-87
2021/08/24 00:30:43;;;;;;;2.53;1.02;;;14.40;99.60;;;;;;4992520;28;20117;-87
2021/08/24 00:33:09;;;;;;;4.38;0.90;;;14.40;99.60;;;;;;4999049;28;20026;-86
2021/08/24 00:35:39;;;;;;;4.38;1.00;;;14.30;99.70;;;;;;4991005;28;20038;-86
2021/08/24 00:38:06;;;;;;;2.83;1.20;;;14.30;99.80;;;;;;4992344;28;20018;-86
2021/08/24 00:40:32;;;;;;;2.72;1.10;;;14.20;99.80;;;;;;4988787;28;20046;-86
2021/08/24 00:42:58;;;;;;;2.83;1.00;;;14.20;99.90;;;;;;4981136;28;20025;-86
2021/08/24 00:45:23;;;;;;;4.22;1.23;;;14.20;99.90;;;;;;4991399;28;20026;-86
2021/08/24 00:47:50;;;;;;;3.17;0.98;;;14.10;99.90;;;;;;4985740;28;20483;-86
2021/08/24 00:50:23;;;;;;;1.90;1.00;;;14.10;99.90;;;;;;4990014;28;20058;-86
2021/08/24 00:52:48;;;;;;;2.40;0.98;;;14.10;99.90;;;;;;4988657;28;20479;-85
2021/08/24 00:55:16;;;;;;;8.07;1.42;;;14.00;99.90;;;;;;4993121;28;20037;-86
2021/08/24 00:57:52;;;;;;;3.60;1.20;;;14.00;99.90;;;;;;4996844;28;20081;-85
2021/08/24 01:00:18;;;;;;;4.35;0.90;;;13.90;99.90;;;;;;4989719;28;20448;-86
2021/08/24 01:02:43;;;;;;;2.67;0.80;;;13.90;99.90;;;;;;4993452;28;20141;-86
2021/08/24 01:05:11;;;;;;;3.45;1.10;;;13.90;99.90;;;;;;4991829;28;20167;-86
2021/08/24 01:07:44;;;;;;;5.75;1.10;;;13.90;99.90;;;;;;4991579;28;20494;-86
2021/08/24 01:10:25;;;;;;;4.07;0.95;;;13.80;99.90;;;;;;4990928;28;20583;-86
2021/08/24 01:12:59;;;;;;;2.47;0.98;;;13.80;99.90;;;;;;4993803;28;20073;-85
2021/08/24 01:16:07;;;;;;;3.90;0.93;;;13.80;99.90;;;;;;4981137;28;20035;-86
2021/08/24 01:19:10;;;;;;;2.50;1.13;;;13.70;99.90;;;;;;4991899;28;20080;-86
2021/08/24 01:22:10;;;;;;;5.05;0.90;;;13.60;99.90;;;;;;4995429;28;20038;-86
2021/08/24 01:24:39;;;;;;;7.25;0.90;;;13.60;99.90;;;;;;4979883;28;20134;-86
2021/08/24 01:27:15;;;;;;;4.78;1.25;;;13.60;99.90;;;;;;4986871;28;20116;-86
2021/08/24 01:29:59;;;;;;;5.88;1.10;;;13.60;99.90;;;;;;4992712;28;20037;-85
2021/08/24 01:32:55;;;;;;;4.40;0.60;;;13.50;99.90;;;;;;4988350;28;20046;-86
2021/08/24 01:36:02;;;;;;;1.90;0.77;;;13.50;99.90;;;;;;5010482;28;20085;-86
2021/08/24 01:38:33;;;;;;;3.88;0.80;;;13.50;99.90;;;;;;4987380;28;20034;-86
2021/08/24 01:41:21;;;;;;;2.22;0.98;;;13.50;99.90;;;;;;4994478;28;20035;-85
2021/08/24 01:44:04;;;;;;;3.35;1.30;;;13.50;99.90;;;;;;4991685;28;20022;-85
2021/08/24 01:46:59;;;;;;;3.53;1.00;;;13.50;99.90;;;;;;4989577;28;20462;-85
2021/08/24 01:49:40;;;;;;;2.63;0.80;;;13.50;99.90;;;;;;4992418;28;20117;-86
2021/08/24 01:52:10;;;;;;;3.13;0.80;;;13.50;99.90;;;;;;4987579;28;20033;-86
2021/08/24 01:54:41;;;;;;;3.58;1.00;;;13.40;99.90;;;;;;4987010;28;20628;-86
2021/08/24 01:57:13;;;;;;;3.90;0.80;;;13.40;99.90;;;;;;4989968;28;20049;-86
2021/08/24 01:59:53;;;;;;;2.63;0.90;;;13.30;99.90;;;;;;4993913;28;20064;-86
2021/08/24 02:02:25;;;;;;;3.20;1.05;;;13.30;99.90;;;;;;4987092;28;20031;-86
2021/08/24 02:05:00;;;;;;;3.33;2.17;;;13.30;99.90;;;;;;4983085;28;20045;-86
2021/08/24 02:07:30;;;;;;;3.75;0.82;;;13.30;99.90;;;;;;4990378;28;20689;-85
2021/08/24 02:10:02;;;;;;;6.70;0.90;;;13.30;99.90;;;;;;4981272;28;20035;-86
2021/08/24 02:12:31;;;;;;;2.75;0.90;;;13.20;99.90;;;;;;4992826;28;20097;-86
2021/08/24 02:14:59;;;;;;;3.80;1.02;;;13.20;99.90;;;;;;4992047;28;20035;-86
2021/08/24 02:17:25;;;;;;;3.20;1.08;;;13.20;99.90;;;;;;4994869;28;20117;-86
2021/08/24 02:19:55;;;;;;;5.20;1.30;;;13.20;99.90;;;;;;4991432;28;20042;-86
2021/08/24 02:22:29;;;;;;;4.20;1.48;;;13.20;99.90;;;;;;4989494;28;20106;-86
2021/08/24 02:25:01;;;;;;;4.93;1.25;;;13.20;99.90;;;;;;4991303;28;20042;-86
2021/08/24 02:27:30;;;;;;;3.47;1.13;;;13.20;99.90;;;;;;4990098;28;20100;-86
2021/08/24 02:29:56;;;;;;;3.10;1.20;;;13.20;99.90;;;;;;4985673;28;20030;-85
2021/08/24 02:32:31;;;;;;;5.07;1.17;;;13.20;99.90;;;;;;4991087;28;20033;-86
2021/08/24 02:35:03;;;;;;;2.58;1.23;;;13.20;99.90;;;;;;4981548;28;20035;-85
2021/08/24 02:37:36;;;;;;;6.22;1.77;;;13.20;99.90;;;;;;4985546;28;20027;-86
2021/08/24 02:40:15;;;;;;;4.43;1.63;;;13.20;99.90;;;;;;4980102;28;20050;-85
2021/08/24 02:43:05;;;;;;;3.88;1.48;;;13.20;99.90;;;;;;5017033;28;20030;-86
2021/08/24 02:45:34;;;;;;;5.25;1.63;;;13.10;99.90;;;;;;4981849;28;20054;-86
2021/08/24 02:48:06;;;;;;;5.25;1.60;;;13.10;99.90;;;;;;4991337;28;20094;-86
2021/08/24 02:50:32;;;;;;;5.00;1.43;;;13.10;99.90;;;;;;4991857;28;20061;-86
2021/08/24 02:52:57;;;;;;;6.30;2.35;;;13.10;99.90;;;;;;5005417;28;20285;-86
2021/08/24 02:55:23;;;;;;;5.80;1.70;;;13.00;99.90;;;;;;4982676;28;20089;-86
2021/08/24 02:57:49;;;;;;;7.93;1.92;;;13.00;99.90;;;;;;4992410;28;20031;-86
2021/08/24 03:00:15;;;;;;;6.63;1.55;;;12.90;99.90;;;;;;4992566;28;20041;-86
2021/08/24 03:02:41;;;;;;;7.38;2.00;;;12.90;99.90;;;;;;4989089;28;20403;-86
2021/08/24 03:05:07;;;;;;;4.30;2.50;;;12.90;99.90;;;;;;4987588;28;20037;-85
2021/08/24 03:07:36;;;;;;;5.40;2.10;;;12.90;99.90;;;;;;4980391;28;20023;-85
2021/08/24 03:10:08;;;;;;;6.75;2.47;;;12.80;99.90;;;;;;4988375;28;20117;-85
2021/08/24 03:12:42;;;;;;;4.82;2.55;;;12.80;99.90;;;;;;4986281;28;20027;-86
2021/08/24 03:15:20;;;;;;;4.75;1.77;;;12.80;99.90;;;;;;4983697;28;20520;-86
2021/08/24 03:17:56;;;;;;;6.57;2.75;;;12.80;99.90;;;;;;4990445;28;20034;-86
2021/08/24 03:20:25;;;;;;;3.90;2.53;;;12.90;99.90;;;;;;4992808;28;20085;-86
2021/08/24 03:22:52;;;;;;;5.85;2.25;;;12.80;99.90;;;;;;4983303;28;20460;-85
2021/08/24 03:25:20;;;;;;;6.18;2.22;;;12.80;99.90;;;;;;4979707;28;20060;-86
2021/08/24 03:27:47;;;;;;;6.10;2.83;;;12.80;99.90;;;;;;4986629;28;20030;-86
2021/08/24 03:30:15;;;;;;;5.00;2.90;;;12.80;99.90;;;;;;4985252;28;20099;-85
2021/08/24 03:32:41;;;;;;;7.32;2.10;;;12.70;99.90;;;;;;4994045;28;20050;-85
2021/08/24 03:35:08;;;;;;;4.47;2.47;;;12.60;99.90;;;;;;4986186;28;20035;-85
2021/08/24 03:37:34;;;;;;;10.75;3.47;;;12.60;99.90;;;;;;4991774;28;20032;-86
2021/08/24 03:40:00;;;;;;;6.57;2.95;;;12.60;99.90;;;;;;4988727;28;20042;-85
2021/08/24 03:42:25;;;;;;;8.75;3.35;;;12.60;99.90;;;;;;4991055;28;20029;-85
2021/08/24 03:44:51;;;;;;;5.90;2.63;;;12.50;99.90;;;;;;4989289;28;20053;-86
2021/08/24 03:47:16;;;;;;;7.90;2.90;;;12.60;99.90;;;;;;4991789;28;20023;-86
2021/08/24 03:49:42;;;;;;;9.38;3.13;;;12.60;99.90;;;;;;4986696;28;20507;-85
2021/08/24 03:52:08;;;;;;;5.05;3.47;;;12.50;99.90;;;;;;4985055;28;20030;-85
2021/08/24 03:54:34;;;;;;;6.25;3.60;;;12.60;99.90;;;;;;4985279;28;20038;-85
2021/08/24 03:56:59;;;;;;;6.47;3.70;;;12.60;99.90;;;;;;4975056;28;20023;-85
2021/08/24 03:59:25;;;;;;;11.95;4.18;;;12.50;99.90;;;;;;4985344;28;20058;-85
2021/08/24 04:01:50;;;;;;;11.02;4.00;;;12.50;99.90;;;;;;4991609;28;20085;-85
2021/08/24 04:04:16;;;;;;;8.57;4.05;;;12.50;99.90;;;;;;4978216;28;20035;-85
2021/08/24 04:06:42;;;;;;;10.65;4.85;;;12.60;99.90;;;;;;4993360;28;20034;-85
2021/08/24 04:09:08;;;;;;;8.38;4.70;;;12.60;99.90;;;;;;4988449;28;20093;-85
2021/08/24 04:11:33;;;;;;;7.40;3.78;;;12.60;99.90;;;;;;4982884;28;20475;-85
2021/08/24 04:13:59;;;;;;;9.73;4.07;;;12.60;99.90;;;;;;4991280;28;20072;-85
2021/08/24 04:16:24;;;;;;;11.35;5.30;;;12.60;99.90;;;;;;4989558;28;20022;-85
2021/08/24 04:18:50;;;;;;;6.88;4.38;;;12.60;99.90;;;;;;4990471;28;20057;-86
2021/08/24 04:21:18;;;;;;;7.53;3.88;;;12.50;99.90;;;;;;4983860;28;20038;-85
2021/08/24 04:23:45;;;;;;;8.70;4.97;;;12.50;99.90;;;;;;4988420;28;20058;-85
2021/08/24 04:26:11;;;;;;;10.38;4.63;;;12.50;99.90;;;;;;4990740;28;20061;-86
2021/08/24 04:28:37;;;;;;;7.82;5.05;;;12.50;99.90;;;;;;4981357;28;20383;-85
2021/08/24 04:31:05;;;;;;;8.32;4.18;;;12.50;99.90;;;;;;4994079;28;20025;-85
2021/08/24 04:33:32;;;;;;;13.27;5.10;;;12.50;99.90;;;;;;4990881;28;20037;-85
2021/08/24 04:35:57;;;;;;;12.77;5.53;;;12.50;99.90;;;;;;5025178;28;20025;-85
2021/08/24 04:38:23;;;;;;;8.95;6.00;;;12.50;99.90;;;;;;4993137;28;20121;-85
2021/08/24 04:40:50;;;;;;;6.85;5.50;;;12.50;99.90;;;;;;4988865;28;20038;-85
2021/08/24 04:43:16;;;;;;;9.98;5.90;;;12.50;99.90;;;;;;4975413;28;20023;-84
2021/08/24 04:45:42;;;;;;;13.38;4.97;;;12.50;99.90;;;;;;4988135;28;20038;-85
2021/08/24 04:48:07;;;;;;;10.48;5.07;;;12.50;99.90;;;;;;4989232;28;20026;-85
2021/08/24 04:50:33;;;;;;;13.90;5.65;;;12.50;99.90;;;;;;4994755;28;20042;-85
2021/08/24 04:52:59;;;;;;;13.80;6.25;;;12.50;99.90;;;;;;4997384;28;20030;-85
2021/08/24 04:55:25;;;;;;;12.43;6.28;;;12.50;99.90;;;;;;4991846;28;20495;-85
2021/08/24 04:57:50;;;;;;;12.30;6.85;;;12.50;99.90;;;;;;4994190;28;20026;-85
2021/08/24 05:00:16;;;;;;;11.73;5.95;;;12.50;99.90;;;;;;4987412;28;20577;-85
2021/08/24 05:02:41;;;;;;;10.88;6.55;;;12.50;99.90;;;;;;4997225;28;20026;-85
2021/08/24 05:05:08;;;;;;;11.48;6.32;;;12.50;99.90;;;;;;4994727;28;20050;-86
2021/08/24 05:07:33;;;;;;;14.73;7.43;;;12.50;99.90;;;;;;4994498;28;20034;-86
2021/08/24 05:09:59;;;;;;;12.32;6.93;;;12.50;99.90;;;;;;4994223;28;20033;-85
2021/08/24 05:12:24;;;;;;;14.32;7.15;;;12.50;99.90;;;;;;4994648;28;20018;-85
2021/08/24 05:14:50;;;;;;;13.43;7.10;;;12.60;99.90;;;;;;4995121;28;20422;-85
2021/08/24 05:17:16;;;;;;;12.80;7.47;;;12.60;99.90;;;;;;4994036;28;20182;-85
2021/08/24 05:19:41;;;;;;;11.27;6.68;;;12.70;99.90;;;;;;4993250;28;20069;-86
2021/08/24 05:22:06;;;;;;;9.95;7.03;;;12.70;99.90;;;;;;4994268;28;20559;-83
2021/08/24 05:24:35;;;;;;;13.13;6.75;;;12.70;99.90;;;;;;4994558;28;20044;-84
2021/08/24 05:27:02;;;;;;;14.27;8.02;;;12.80;99.90;;;;;;4985821;28;20026;-86
2021/08/24 05:29:28;;;;;;;14.05;7.50;;;12.80;99.90;;;;;;4991677;28;20064;-86
2021/08/24 05:31:53;;;;;;;12.85;7.93;;;12.90;99.90;;;;;;4986269;28;20309;-86
2021/08/24 05:34:19;;;;;;;9.95;6.97;;;12.90;99.90;;;;;;4988539;28;20452;-86
2021/08/24 05:36:44;;;;;;;10.90;6.95;;;13.00;99.90;;;;;;4990364;28;20394;-86
2021/08/24 05:39:10;;;;;;;15.27;7.28;;;13.10;99.90;;;;;;4986605;28;20121;-87
2021/08/24 05:41:38;;;;;;;13.65;7.55;;;13.10;99.90;;;;;;4988085;28;20248;-86
2021/08/24 05:44:03;;;;;;;11.52;7.25;;;13.20;99.90;;;;;;4995828;28;20861;-86
2021/08/24 05:46:29;;;;;;;15.05;8.13;;;13.20;99.90;;;;;;4989530;28;20058;-86
2021/08/24 05:48:55;;;;;;;9.90;7.63;;;13.30;99.90;;;;;;4982970;28;20412;-86
2021/08/24 05:51:21;;;;;;;13.98;6.90;;;13.40;99.90;;;;;;4989042;28;20064;-86
2021/08/24 05:53:48;;;;;;;13.57;7.45;;;13.50;99.90;;;;;;4986545;28;20126;-87
2021/08/24 05:56:16;;;;;;;13.07;8.05;;;13.50;99.90;;;;;;4991173;28;20080;-87
2021/08/24 05:58:42;;;;;;;12.88;7.50;;;13.60;99.90;;;;;;4991617;28;20483;-87
2021/08/24 06:01:08;;;;;;;15.27;8.18;;;13.60;99.90;;;;;;4992287;28;20030;-87
2021/08/24 06:03:37;;;;;;;9.73;6.78;;;13.70;99.90;;;;;;4995534;28;20106;-87
2021/08/24 06:06:03;;;;;;;18.60;7.28;;;13.70;99.90;;;;;;4995834;28;20015;-87
2021/08/24 06:08:28;;;;;;;15.30;7.93;;;13.90;99.90;;;;;;5027188;28;20057;-86
2021/08/24 06:10:54;;;;;;;14.10;7.85;;;14.00;99.90;;;;;;4989475;28;20027;-86
2021/08/24 06:13:19;;;;;;;12.07;6.80;;;14.00;99.90;;;;;;4995821;28;20014;-87
2021/08/24 06:15:45;;;;;;;11.20;7.95;;;14.10;99.90;;;;;;4979412;28;20026;-86
2021/08/24 06:18:10;;;;;;;17.55;8.25;;;14.20;99.90;;;;;;4980613;28;20037;-88
2021/08/24 06:20:36;;;;;;;15.75;7.38;;;14.30;99.90;;;;;;4993920;28;20052;-87
2021/08/24 06:23:01;;;;;;;13.80;7.60;;;14.40;99.90;;;;;;4991848;28;20029;-87
2021/08/24 06:25:27;;;;;;;13.48;7.75;;;14.50;99.90;;;;;;4996488;28;20054;-87
2021/08/24 06:27:53;;;;;;;13.85;8.27;;;14.60;99.90;;;;;;4994595;28;20069;-87
2021/08/24 06:30:19;;;;;;;14.95;7.18;;;14.70;99.90;;;;;;4993231;28;20034;-87
2021/08/24 06:32:48;;;;;;;14.63;7.68;;;14.80;99.90;;;;;;4989657;28;20026;-87
2021/08/24 06:35:16;;;;;;;14.00;7.32;;;14.90;99.90;;;;;;4992135;28;20026;-87
2021/08/24 06:37:42;;;;;;;16.25;6.90;;;15.00;99.90;;;;;;4991252;28;20037;-87
2021/08/24 06:40:09;;;;;;;9.98;7.10;;;15.10;99.90;;;;;;4986788;28;20736;-87
2021/08/24 06:43:01;;;;;;;10.52;6.22;;;15.20;99.90;;;;;;4989590;28;20213;-88
2021/08/24 06:45:30;;;;;;;12.70;7.50;;;15.40;99.90;;;;;;4992168;28;20049;-86
2021/08/24 06:47:56;;;;;;;12.10;6.55;;;15.40;99.90;;;;;;4993915;28;20023;-87
2021/08/24 06:50:24;;;;;;;11.85;6.13;;;15.60;99.90;;;;;;4995637;28;20022;-87
2021/08/24 06:52:49;;;;;;;7.75;5.75;;;15.60;99.90;;;;;;4993826;28;20117;-86
2021/08/24 06:55:16;;;;;;;9.30;5.88;;;15.70;99.90;;;;;;4994026;28;20476;-87
2021/08/24 06:57:44;;;;;;;14.60;6.47;;;15.90;99.90;;;;;;4995305;28;20030;-87
2021/08/24 07:00:16;;;;;;;10.15;6.00;;;16.00;99.90;;;;;;4990487;28;20150;-87
2021/08/24 07:02:43;;;;;;;15.48;5.93;;;16.10;99.90;;;;;;4992844;28;20037;-87
2021/08/24 07:05:09;;;;;;;8.90;5.25;;;16.20;99.90;;;;;;4991635;28;20050;-87
2021/08/24 07:07:35;;;;;;;14.65;7.00;;;16.30;99.90;;;;;;4995634;28;20035;-87
2021/08/24 07:10:01;;;;;;;9.18;5.35;;;16.40;99.90;;;;;;5022788;28;20038;-87
2021/08/24 07:12:26;;;;;;;11.20;4.90;;;16.50;99.90;;;;;;4994545;28;20042;-87
2021/08/24 07:14:52;;;;;;;9.70;4.97;;;16.60;99.90;;;;;;4994987;28;20029;-87
2021/08/24 07:17:18;;;;;;;7.05;5.10;;;16.60;99.90;;;;;;4994123;28;20137;-88
2021/08/24 07:19:43;;;;;;;10.95;5.63;;;16.70;99.90;;;;;;4994858;28;20038;-88
2021/08/24 07:22:09;;;;;;;9.23;4.75;;;16.70;99.90;;;;;;4995800;28;20390;-87
2021/08/24 07:24:35;;;;;;;11.65;4.88;;;16.70;99.90;;;;;;4980392;28;20304;-88
2021/08/24 07:27:00;;;;;;;9.93;4.90;;;16.80;99.90;;;;;;4994364;28;20502;-85
2021/08/24 07:29:26;;;;;;;6.95;4.57;;;16.90;99.90;;;;;;4981514;28;20034;-85
2021/08/24 07:31:52;;;;;;;8.23;4.63;;;16.90;99.90;;;;;;4987362;28;20034;-85
2021/08/24 07:34:17;;;;;;;8.73;4.20;;;17.10;99.90;;;;;;4992591;28;20084;-85
2021/08/24 07:36:43;;;;;;;8.77;4.43;;;17.20;99.90;;;;;;4992820;28;20514;-85
2021/08/24 07:39:08;;;;;;;9.88;4.00;;;17.30;99.90;;;;;;4995040;28;20030;-85
2021/08/24 07:41:34;;;;;;;8.18;3.72;;;17.40;99.90;;;;;;4982829;28;20031;-85
2021/08/24 07:44:00;;;;;;;7.85;4.07;;;17.40;99.90;;;;;;5017378;28;20030;-86
2021/08/24 07:46:25;;;;;;;10.52;4.15;;;17.50;99.90;;;;;;4986203;28;20042;-85
2021/08/24 07:48:51;;;;;;;9.43;4.38;;;17.50;99.90;;;;;;4982403;28;20033;-85
2021/08/24 07:51:20;;;;;;;6.88;3.58;;;17.60;99.90;;;;;;4992300;28;20026;-85
2021/08/24 07:53:50;;;;;;;8.63;4.00;;;17.70;99.90;;;;;;4992704;28;20026;-86
2021/08/24 07:56:15;;;;;;;8.98;5.10;;;17.80;99.70;;;;;;4987152;28;20030;-85
2021/08/24 07:58:41;;;;;;;7.55;3.40;;;17.80;99.50;;;;;;5015569;28;20026;-85
2021/08/24 08:01:07;;;;;;;7.10;3.35;;;17.90;99.30;;;;;;4993323;28;20057;-85
2021/08/24 08:03:32;;;;;;;7.45;3.63;;;18.00;99.30;;;;;;4991739;28;20062;-86
2021/08/24 08:05:58;;;;;;;5.80;3.75;;;18.10;99.10;;;;;;4981025;28;20129;-86
2021/08/24 08:08:23;;;;;;;7.20;3.60;;;18.10;98.80;;;;;;4993649;28;20022;-86
2021/08/24 08:10:49;;;;;;;8.27;4.28;;;18.30;98.50;;;;;;4994297;28;20058;-86
2021/08/24 08:13:14;;;;;;;8.40;3.63;;;18.30;98.30;;;;;;4996072;28;20022;-85
2021/08/24 08:15:41;;;;;;;6.20;3.33;;;18.30;98.20;;;;;;4992526;28;20035;-85
2021/08/24 08:18:08;;;;;;;7.18;3.28;;;18.40;98.00;;;;;;4991823;28;20031;-86
2021/08/24 08:20:35;;;;;;;5.15;3.10;;;18.30;97.80;;;;;;4994258;28;20041;-86
2021/08/24 08:23:03;;;;;;;7.38;3.70;;;18.40;97.60;;;;;;5000958;28;20026;-86
2021/08/24 08:25:29;;;;;;;4.30;2.88;;;18.50;97.40;;;;;;4999747;28;20042;-86
2021/08/24 08:27:55;;;;;;;7.10;3.17;;;18.50;97.10;;;;;;4998396;28;20037;-86
2021/08/24 08:30:21;;;;;;;5.65;2.53;;;18.60;96.60;;;;;;4997799;28;20399;-87
2021/08/24 08:32:46;;;;;;;5.63;2.67;;;18.70;96.60;;;;;;4999402;28;20059;-86
2021/08/24 08:35:14;;;;;;;6.82;3.03;;;18.70;96.50;;;;;;4997547;28;20030;-86
2021/08/24 08:37:41;;;;;;;5.15;2.35;;;18.80;96.20;;;;;;4982965;28;20034;-86
2021/08/24 08:40:08;;;;;;;10.15;2.80;;;18.90;96.30;;;;;;5000531;28;20066;-87
2021/08/24 08:43:03;;;;;;;6.18;2.58;;;19.00;95.50;;;;;;5000247;28;20506;-87
2021/08/24 08:45:45;;;;;;;6.85;2.08;;;19.10;94.90;;;;;;4987476;28;20102;-87
2021/08/24 08:48:19;;;;;;;5.72;2.17;;;19.10;94.30;;;;;;4998549;28;20026;-86
2021/08/24 08:50:48;;;;;;;7.97;2.40;;;19.10;94.00;;;;;;5001577;28;20050;-86
2021/08/24 08:53:23;;;;;;;4.80;2.10;;;19.20;94.30;;;;;;4999811;28;20498;-86
2021/08/24 08:56:16;;;;;;;6.32;2.30;;;19.20;94.10;;;;;;4997193;28;20037;-87
2021/08/24 08:58:57;;;;;;;;;;;19.30;94.30;;;;;;4993676;28;20029;-87
2021/08/24 09:01:47;;;;;;;5.20;2.03;;;19.40;94.00;;;;;;5000285;28;19928;-87
2021/08/24 09:04:25;;;;;;;6.20;1.38;;;19.50;93.00;;;;;;4980713;28;20034;-87
2021/08/24 09:06:57;;;;;;;7.15;2.10;;;19.50;93.00;;;;;;4981073;28;20051;-87
2021/08/24 09:09:23;;;;;;;7.93;2.00;;;19.70;92.70;;;;;;4994692;28;20030;-86
2021/08/24 09:11:50;;;;;;;2.88;1.75;;;19.70;92.70;;;;;;5000206;28;20100;-87
2021/08/24 09:14:34;;;;;;;6.07;2.13;;;19.80;92.40;;;;;;5002956;28;20034;-86
2021/08/24 09:17:30;;;;;;;4.22;1.30;;;19.90;91.40;;;;;;5000715;28;20446;-87
2021/08/24 09:20:18;;;;;;;4.38;2.13;;;19.90;91.50;;;;;;4999685;28;20080;-87
2021/08/24 09:22:44;;;;;;;6.43;2.00;;;20.00;91.30;;;;;;4999819;28;20035;-86
2021/08/24 09:25:17;;;;;;;3.33;1.73;;;20.10;91.70;;;;;;5033468;28;20049;-87
2021/08/24 09:27:58;;;;;;;4.10;1.63;;;20.30;91.30;;;;;;4998487;28;20065;-87
2021/08/24 09:30:24;;;;;;;4.47;1.45;;;20.40;90.90;;;;;;5001067;28;20038;-87
2021/08/24 09:32:50;;;;;;;6.63;1.38;;;20.50;90.60;;;;;;4997438;28;20042;-87
2021/08/24 09:35:25;;;;;;;5.05;1.45;;;20.50;90.70;;;;;;4996636;28;20085;-87
2021/08/24 09:37:51;;;;;;;4.93;1.60;;;20.70;90.50;;;;;;4997342;28;20026;-86
2021/08/24 09:40:37;;;;;;;4.93;1.45;;;20.70;88.90;;;;;;4997187;28;20450;-86
2021/08/24 09:43:18;;;;;;;7.10;1.75;;;20.80;89.40;;;;;;4996149;28;20501;-86
2021/08/24 09:45:44;;;;;;;3.35;1.48;;;21.00;89.30;;;;;;4997342;28;20050;-87
2021/08/24 09:48:10;;;;;;;4.07;1.60;;;21.10;88.50;;;;;;4997645;28;20038;-87
2021/08/24 09:50:43;;;;;;;4.18;1.58;;;21.00;88.10;;;;;;4997217;28;20125;-87
2021/08/24 09:53:32;;;;;;;4.25;1.35;;;21.00;87.50;;;;;;4994841;28;20022;-87
2021/08/24 09:56:01;;;;;;;4.05;1.83;;;21.10;87.10;;;;;;4983411;28;20026;-87
2021/08/24 09:58:29;;;;;;;11.93;2.25;;;21.00;86.10;;;;;;4996748;28;20045;-88
2021/08/24 10:01:02;;;;;;;4.90;1.35;;;21.00;86.40;;;;;;4996862;28;20121;-87
2021/08/24 10:03:34;;;;;;;4.38;1.60;;;21.00;86.70;;;;;;4996013;28;20033;-88
2021/08/24 10:06:20;;;;;;;;;;;21.00;87.50;;;;;;4997160;28;20034;-88
2021/08/24 10:08:46;;;;;;;3.28;1.67;;;21.10;87.60;;;;;;4989455;28;20009;-87
2021/08/24 10:11:21;;;;;;;3.67;1.63;;;21.30;88.60;;;;;;4995794;28;20058;-87
2021/08/24 10:13:47;;;;;;;4.28;1.35;;;21.40;87.10;;;;;;4982832;28;20339;-88
2021/08/24 10:16:26;;;;;;;5.75;2.25;;;21.40;87.20;;;;;;5016672;28;20021;-86
2021/08/24 10:19:07;;;;;;;3.78;1.90;;;21.50;86.60;;;;;;4995909;28;20034;-88
2021/08/24 10:22:00;;;;;;;6.15;1.88;;;21.80;87.10;;;;;;4997973;28;20046;-87
2021/08/24 10:24:31;;;;;;;6.40;2.17;;;22.00;84.60;;;;;;4995676;28;20414;-88
2021/08/24 10:27:01;;;;;;;7.47;2.05;;;22.00;84.10;;;;;;4993592;28;20030;-87
2021/08/24 10:29:34;;;;;;;3.17;1.40;;;21.90;83.20;;;;;;4993343;28;20586;-87
2021/08/24 10:32:03;;;;;;;2.65;1.10;;;22.00;83.90;;;;;;4997146;28;20026;-87
2021/08/24 10:34:45;;;;;;;2.55;1.00;;;22.10;83.50;;;;;;4996315;28;20019;-87
2021/08/24 10:37:16;;;;;;;4.10;1.60;;;22.20;81.80;;;;;;5010647;28;20037;-96
2021/08/24 10:39:42;;;;;;;4.55;1.50;;;22.20;81.70;;;;;;5050984;28;20048;-96
2021/08/24 10:42:16;;;;;;;3.65;1.10;;;22.40;80.80;;;;;;5008734;28;20375;-89
2021/08/24 10:44:45;;;;;;;2.65;1.30;;;22.40;79.10;;;;;;4985379;28;20023;-89
2021/08/24 10:47:22;;;;;;;2.20;0.90;;;22.40;77.90;;;;;;4987403;28;20571;-88
2021/08/24 10:49:47;;;;;;;3.15;0.70;;;22.30;76.90;;;;;;4995292;28;20134;-88
2021/08/24 10:52:25;;;;;;;6.00;0.90;;;22.30;76.30;;;;;;5023979;28;20030;-88
2021/08/24 10:54:57;;;;;;;3.65;0.80;;;22.40;76.80;;;;;;4996314;28;20049;-89
2021/08/24 10:57:26;;;;;;;2.55;0.80;;;22.40;75.70;;;;;;4996846;28;20022;-88
2021/08/24 11:00:04;;;;;;;2.47;0.85;;;22.40;75.00;;;;;;4996464;28;20104;-86
2021/08/24 11:02:57;;;;;;;3.92;1.15;;;22.50;74.70;;;;;;5001291;28;20026;-95
2021/08/24 11:06:12;;;;;;;4.07;1.15;;;22.40;75.00;;;;;;4998219;28;20022;-87
2021/08/24 11:08:52;;;;;;;5.90;1.63;;;22.40;74.90;;;;;;4969209;28;20101;-91
2021/08/24 11:11:39;;;;;;;5.47;1.00;;;22.50;74.50;;;;;;4999413;28;20027;-96
2021/08/24 11:14:40;;;;;;;4.20;1.20;;;22.60;74.50;;;;;;5008586;28;20057;-96
2021/08/24 11:17:32;;;;;;;3.10;1.15;;;22.60;73.10;;;;;;4983653;28;20043;-96
2021/08/24 11:20:10;;;;;;;3.60;1.02;;;22.70;73.80;;;;;;5001898;28;20034;-96
2021/08/24 11:23:04;;;;;;;2.83;0.77;;;23.00;72.50;;;;;;5001354;28;20041;-90
2021/08/24 11:25:55;;;;;;;1.88;0.82;;;23.10;72.40;;;;;;5002498;28;20042;-96
2021/08/24 11:28:39;;;;;;;3.05;1.13;;;23.20;71.80;;;;;;4998480;28;20070;-92
2021/08/24 11:31:19;;;;;;;1.63;0.77;;;23.20;71.50;;;;;;4994730;28;20018;-95
2021/08/24 11:33:52;;;;;;;2.38;0.88;;;23.10;70.80;;;;;;4998588;28;20444;-95
2021/08/24 11:36:47;;;;;;;4.35;1.15;;;23.00;70.30;;;;;;5029477;28;20023;-94
2021/08/24 11:39:27;;;;;;;5.75;1.05;;;23.10;71.00;;;;;;5030049;28;20030;-95
2021/08/24 11:42:02;;;;;;;5.22;1.10;;;23.20;71.70;;;;;;5028675;28;20023;-94
2021/08/24 11:44:39;;;;;;;3.20;0.82;;;23.30;71.00;;;;;;4993263;28;20062;-95
2021/08/24 11:47:11;;;;;;;3.88;1.23;;;23.20;70.50;;;;;;4976943;28;20050;-88
2021/08/24 11:49:52;;;;;;;1.98;0.80;;;23.20;71.20;;;;;;4975806;28;20058;-86
2021/08/24 11:52:29;;;;;;;2.28;1.00;;;23.10;69.90;;;;;;4979103;28;20113;-92
2021/08/24 11:55:13;;;;;;;3.58;0.93;;;23.10;69.10;;;;;;4992741;28;20443;-90
2021/08/24 11:58:16;;;;;;;3.67;1.13;;;23.00;68.80;;;;;;5011919;28;20062;-95
2021/08/24 12:00:53;;;;;;;2.90;0.80;;;23.00;67.90;;;;;;4998837;28;20049;-94
2021/08/24 12:03:21;;;;;;;2.78;0.80;;;23.00;68.00;;;;;;4994839;28;20364;-85
2021/08/24 12:05:53;;;;;;;3.28;0.93;;;23.10;67.50;;;;;;4995065;28;20045;-85
2021/08/24 12:08:23;;;;;;;4.28;0.70;;;23.10;66.00;;;;;;4994126;28;20077;-85
2021/08/24 12:10:51;;;;;;;2.67;0.65;;;23.00;67.70;;;;;;4995141;28;20040;-85
2021/08/24 12:13:46;;;;;;;1.83;0.90;;;23.10;67.90;;;;;;5027124;28;20034;-85
2021/08/24 12:16:24;;;;;;;2.30;0.90;;;23.20;65.70;;;;;;4997155;28;20022;-86
2021/08/24 12:18:56;;;;;;;3.55;0.82;;;23.30;64.30;;;;;;4994985;28;20029;-85
2021/08/24 12:21:37;;;;;;;2.30;0.70;;;23.30;63.10;;;;;;4984070;28;20043;-85
2021/08/24 12:24:23;;;;;;;1.70;0.88;;;23.30;63.20;;;;;;5007759;28;20373;-86
2021/08/24 12:27:09;;;;;;;6.47;0.63;;;23.40;63.50;;;;;;4994683;28;20046;-85
2021/08/24 12:29:44;;;;;;;4.85;0.70;;;23.50;61.20;;;;;;4980602;28;20521;-85
2021/08/24 12:32:38;;;;;;;1.50;0.60;;;23.40;60.90;;;;;;4990736;28;20025;-85
2021/08/24 12:35:32;;;;;;;3.03;1.25;;;23.30;59.00;;;;;;4991483;28;20034;-85
2021/08/24 12:38:02;;;;;;;3.42;0.50;;;23.10;59.40;;;;;;5009239;28;20027;-85
2021/08/24 12:40:36;;;;;;;1.80;0.60;;;23.10;59.10;;;;;;4994123;28;20035;-85
2021/08/24 12:43:01;;;;;;;3.35;0.90;;;23.00;59.80;;;;;;4994003;28;20026;-85
2021/08/24 12:45:29;;;;;;;2.08;0.80;;;23.00;59.40;;;;;;4986132;28;20030;-85
2021/08/24 12:48:19;;;;;;;2.33;0.70;;;22.90;59.20;;;;;;4993502;28;20041;-85
2021/08/24 12:50:49;;;;;;;3.55;0.60;;;22.90;59.10;;;;;;4982714;28;20031;-85
2021/08/24 12:53:44;;;;;;;2.85;0.80;;;22.90;59.10;;;;;;4982154;28;20030;-85
2021/08/24 12:56:32;;;;;;;3.50;0.65;;;23.10;58.90;;;;;;5008079;28;20483;-85
2021/08/24 12:59:01;;;;;;;1.92;0.70;;;23.20;59.90;;;;;;4976538;28;20031;-85
2021/08/24 13:01:27;;;;;;;2.42;0.80;;;23.30;59.00;;;;;;4975167;28;20090;-85
2021/08/24 13:04:20;;;;;;;4.50;0.70;;;23.30;59.40;;;;;;4975302;28;20026;-85
2021/08/24 13:06:47;;;;;;;3.50;0.90;;;23.40;59.30;;;;;;4994212;28;20031;-86
2021/08/24 13:09:38;;;;;;;3.22;0.60;;;23.40;59.10;;;;;;4987866;28;20019;-85